createdAt,value
2019-05-29T00:00:49.067Z,10.55
2019-05-29T00:03:18.633Z,10.54
2019-05-29T00:05:47.097Z,10.53
2019-05-29T00:08:15.558Z,10.50
2019-05-29T00:10:43.969Z,10.43
2019-05-29T00:13:12.450Z,10.36
2019-05-29T00:15:40.897Z,10.40
2019-05-29T00:18:10.373Z,10.27
2019-05-29T00:20:38.817Z,10.27
2019-05-29T00:23:08.351Z,10.37
2019-05-29T00:25:36.791Z,10.35
2019-05-29T00:28:06.406Z,10.26
2019-05-29T00:30:35.024Z,10.29
2019-05-29T00:33:03.476Z,10.33
2019-05-29T00:35:31.866Z,10.32
2019-05-29T00:38:00.418Z,10.32
2019-05-29T00:40:28.883Z,10.21
2019-05-29T00:42:57.369Z,10.14
2019-05-29T00:45:25.877Z,10.08
2019-05-29T00:47:54.268Z,10.10
2019-05-29T00:50:22.705Z,10.02
2019-05-29T00:52:51.116Z,9.98
2019-05-29T00:55:19.548Z,9.94
2019-05-29T00:57:47.962Z,9.99
2019-05-29T01:00:17.474Z,9.94
2019-05-29T01:02:46.283Z,9.88
2019-05-29T01:05:16.123Z,9.93
2019-05-29T01:07:44.611Z,9.86
2019-05-29T01:10:14.620Z,9.83
2019-05-29T01:12:43.157Z,9.77
2019-05-29T01:15:13.232Z,9.72
2019-05-29T01:17:41.735Z,9.64
2019-05-29T01:20:10.365Z,9.62
2019-05-29T01:22:38.813Z,9.64
2019-05-29T01:25:07.841Z,9.58
2019-05-29T01:27:36.256Z,9.58
2019-05-29T01:30:06.331Z,9.68
2019-05-29T01:32:34.748Z,9.71
2019-05-29T01:35:04.345Z,9.71
2019-05-29T01:37:32.702Z,9.70
2019-05-29T01:40:01.136Z,9.69
2019-05-29T01:42:29.585Z,9.71
2019-05-29T01:45:07.858Z,9.72
2019-05-29T01:47:28.101Z,9.64
2019-05-29T01:49:56.546Z,9.59
2019-05-29T01:52:24.967Z,9.48
2019-05-29T01:54:53.383Z,9.50
2019-05-29T01:57:21.869Z,9.47
2019-05-29T01:59:50.385Z,9.46
2019-05-29T02:02:19.881Z,9.34
2019-05-29T02:04:48.422Z,9.18
2019-05-29T02:07:17.907Z,9.09
2019-05-29T02:09:46.537Z,8.95
2019-05-29T02:12:16.258Z,8.84
2019-05-29T02:14:44.762Z,8.85
2019-05-29T02:17:13.323Z,8.80
2019-05-29T02:19:41.744Z,8.79
2019-05-29T02:22:10.215Z,8.73
2019-05-29T02:24:38.617Z,8.76
2019-05-29T02:27:07.218Z,8.66
2019-05-29T02:29:35.580Z,8.56
2019-05-29T02:32:04.085Z,8.48
2019-05-29T02:34:32.493Z,8.40
2019-05-29T02:37:01.021Z,8.47
2019-05-29T02:39:29.693Z,8.47
2019-05-29T02:41:58.333Z,8.33
2019-05-29T02:44:27.547Z,8.24
2019-05-29T02:46:56.345Z,8.20
2019-05-29T02:49:25.781Z,8.25
2019-05-29T02:51:54.413Z,8.24
2019-05-29T02:54:24.726Z,8.20
2019-05-29T02:56:53.082Z,8.23
2019-05-29T02:59:23.266Z,8.23
2019-05-29T03:01:51.929Z,8.26
2019-05-29T03:04:21.717Z,8.32
2019-05-29T03:06:50.340Z,8.46
2019-05-29T03:09:18.889Z,8.46
2019-05-29T03:11:47.519Z,8.46
2019-05-29T03:14:15.909Z,8.42
2019-05-29T03:16:44.330Z,8.46
2019-05-29T03:19:12.836Z,8.47
2019-05-29T03:21:41.234Z,8.38
2019-05-29T03:24:09.712Z,8.33
2019-05-29T03:26:38.448Z,8.29
2019-05-29T03:29:07.044Z,8.27
2019-05-29T03:31:45.565Z,8.21
2019-05-29T03:34:05.699Z,8.18
2019-05-29T03:36:41.575Z,8.20
2019-05-29T03:39:05.541Z,8.25
2019-05-29T03:41:34.895Z,8.18
2019-05-29T03:44:03.316Z,8.24
2019-05-29T03:46:41.088Z,8.17
2019-05-29T03:49:01.907Z,8.17
2019-05-29T03:51:32.535Z,8.16
2019-05-29T03:54:00.522Z,8.11
2019-05-29T03:56:30.428Z,8.09
2019-05-29T03:58:59.136Z,8.14
2019-05-29T04:01:29.184Z,8.10
2019-05-29T04:03:57.718Z,8.02
2019-05-29T04:06:26.976Z,7.98
2019-05-29T04:08:55.517Z,7.93
2019-05-29T04:11:23.962Z,7.88
2019-05-29T04:13:52.521Z,7.87
2019-05-29T04:16:22.631Z,7.84
2019-05-29T04:18:53.160Z,7.92
2019-05-29T04:21:22.676Z,7.91
2019-05-29T04:23:51.544Z,7.74
2019-05-29T04:26:22.059Z,7.81
2019-05-29T04:28:50.788Z,7.87
2019-05-29T04:31:19.207Z,7.94
2019-05-29T04:33:47.742Z,7.95
2019-05-29T04:36:16.264Z,7.99
2019-05-29T04:38:44.718Z,7.95
2019-05-29T04:41:13.162Z,7.97
2019-05-29T04:43:41.546Z,8.02
2019-05-29T04:46:10.053Z,8.15
2019-05-29T04:48:40.448Z,8.20
2019-05-29T04:51:08.745Z,8.22
2019-05-29T04:53:37.823Z,8.26
2019-05-29T04:56:07.279Z,8.24
2019-05-29T04:58:36.939Z,8.27
2019-05-29T05:01:05.423Z,8.32
2019-05-29T05:03:35.138Z,8.33
2019-05-29T05:06:03.763Z,8.34
2019-05-29T05:08:33.250Z,8.40
2019-05-29T05:11:02.443Z,8.47
2019-05-29T05:13:31.479Z,8.55
2019-05-29T05:16:02.073Z,8.64
2019-05-29T05:18:31.658Z,8.69
2019-05-29T05:21:00.466Z,8.72
2019-05-29T05:23:30.066Z,8.75
2019-05-29T05:25:58.742Z,8.81
2019-05-29T05:28:27.269Z,8.85
2019-05-29T05:30:55.611Z,8.88
2019-05-29T05:33:24.178Z,8.92
2019-05-29T05:35:52.605Z,9.02
2019-05-29T05:38:21.009Z,9.10
2019-05-29T05:40:49.448Z,9.15
2019-05-29T05:43:24.188Z,9.20
2019-05-29T05:45:48.077Z,9.25
2019-05-29T05:48:16.530Z,9.28
2019-05-29T05:50:44.931Z,9.31
2019-05-29T05:53:13.344Z,9.37
2019-05-29T05:55:41.928Z,9.43
2019-05-29T05:58:10.421Z,9.50
2019-05-29T06:00:39.918Z,9.52
2019-05-29T06:03:08.513Z,9.56
2019-05-29T06:05:38.107Z,9.58
2019-05-29T06:08:06.683Z,9.59
2019-05-29T06:10:36.122Z,9.61
2019-05-29T06:13:04.750Z,9.63
2019-05-29T06:15:34.305Z,9.66
2019-05-29T06:18:19.920Z,9.70
2019-05-29T06:20:33.031Z,9.74
2019-05-29T06:23:01.506Z,9.79
2019-05-29T06:25:29.948Z,9.85
2019-05-29T06:27:58.427Z,9.92
2019-05-29T06:30:26.990Z,9.91
2019-05-29T06:32:55.529Z,9.91
2019-05-29T06:35:23.943Z,9.99
2019-05-29T06:37:52.378Z,10.02
2019-05-29T06:40:23.862Z,10.07
2019-05-29T06:42:52.280Z,10.08
2019-05-29T06:45:23.764Z,10.07
2019-05-29T06:47:52.269Z,10.08
2019-05-29T06:50:20.681Z,10.11
2019-05-29T06:52:49.096Z,10.12
2019-05-29T06:55:17.592Z,10.14
2019-05-29T06:57:46.065Z,10.19
2019-05-29T07:00:31.796Z,10.21
2019-05-29T07:02:44.922Z,10.24
2019-05-29T07:05:13.439Z,10.26
2019-05-29T07:07:42.491Z,10.26
2019-05-29T07:10:11.151Z,10.29
2019-05-29T07:12:40.358Z,10.28
2019-05-29T07:15:09.317Z,10.25
2019-05-29T07:17:38.549Z,10.29
2019-05-29T07:20:07.420Z,9.76
2019-05-29T07:22:37.011Z,10.34
2019-05-29T07:25:06.973Z,10.43
2019-05-29T07:27:36.713Z,10.46
2019-05-29T07:30:06.890Z,10.48
2019-05-29T07:32:35.320Z,10.50
2019-05-29T07:35:04.748Z,10.51
2019-05-29T07:37:33.206Z,10.50
2019-05-29T07:40:01.658Z,10.48
2019-05-29T07:42:30.084Z,10.49
2019-05-29T07:44:58.470Z,10.51
2019-05-29T07:47:26.961Z,10.52
2019-05-29T07:49:55.371Z,10.57
2019-05-29T07:52:23.849Z,10.65
2019-05-29T07:54:52.301Z,10.70
2019-05-29T07:57:20.767Z,10.77
2019-05-29T07:59:49.260Z,8.83
2019-05-29T08:02:17.726Z,9.83
2019-05-29T08:04:47.202Z,10.84
2019-05-29T08:07:15.695Z,10.85
2019-05-29T08:09:45.547Z,10.93
2019-05-29T08:12:14.059Z,10.94
2019-05-29T08:14:43.673Z,10.94
2019-05-29T08:17:12.350Z,10.92
2019-05-29T08:19:58.250Z,10.93
2019-05-29T08:22:10.924Z,11.01
2019-05-29T08:24:40.656Z,11.29
2019-05-29T08:27:09.185Z,11.39
2019-05-29T08:29:37.672Z,11.40
2019-05-29T08:32:06.213Z,11.41
2019-05-29T08:34:34.638Z,11.41
2019-05-29T08:37:06.938Z,11.51
2019-05-29T08:39:36.876Z,11.52
2019-05-29T08:42:21.997Z,11.60
2019-05-29T08:44:33.960Z,11.79
2019-05-29T08:47:10.251Z,11.77
2019-05-29T08:49:32.534Z,11.83
2019-05-29T08:52:11.875Z,11.73
2019-05-29T08:54:31.912Z,11.64
2019-05-29T08:57:00.350Z,11.81
2019-05-29T08:59:28.771Z,11.92
2019-05-29T09:01:57.303Z,12.16
2019-05-29T09:04:25.777Z,12.20
2019-05-29T09:06:54.237Z,12.08
2019-05-29T09:09:22.644Z,12.08
2019-05-29T09:11:51.848Z,12.21
2019-05-29T09:14:20.402Z,12.26
2019-05-29T09:16:48.850Z,12.30
2019-05-29T09:19:18.679Z,12.45
2019-05-29T09:21:47.407Z,12.51
2019-05-29T09:24:17.398Z,12.50
2019-05-29T09:26:46.626Z,12.40
2019-05-29T09:29:19.988Z,12.42
2019-05-29T09:31:45.313Z,12.50
2019-05-29T09:34:15.183Z,12.44
2019-05-29T09:36:43.949Z,12.50
2019-05-29T09:39:12.370Z,12.42
2019-05-29T09:41:40.777Z,12.37
2019-05-29T09:44:09.206Z,12.39
2019-05-29T09:46:37.754Z,12.41
2019-05-29T09:49:06.221Z,12.49
2019-05-29T09:51:34.636Z,12.51
2019-05-29T09:54:03.562Z,12.86
2019-05-29T09:56:32.120Z,13.06
2019-05-29T09:59:01.840Z,13.16
2019-05-29T10:01:30.677Z,13.20
2019-05-29T10:04:01.509Z,13.19
2019-05-29T10:06:29.288Z,13.50
2019-05-29T10:08:58.069Z,13.47
2019-05-29T10:11:26.487Z,13.36
2019-05-29T10:13:55.710Z,13.18
2019-05-29T10:16:25.250Z,13.19
2019-05-29T10:18:54.272Z,13.38
2019-05-29T10:21:38.672Z,13.50
2019-05-29T10:23:54.744Z,13.51
2019-05-29T10:26:24.143Z,13.55
2019-05-29T10:29:06.746Z,13.42
2019-05-29T10:31:22.756Z,13.26
2019-05-29T10:33:52.399Z,13.18
2019-05-29T10:36:21.354Z,13.41
2019-05-29T10:38:50.706Z,13.53
2019-05-29T10:41:19.402Z,13.84
2019-05-29T10:43:49.062Z,13.76
2019-05-29T10:46:17.715Z,13.70
2019-05-29T10:48:49.358Z,13.54
2019-05-29T10:51:16.322Z,13.49
2019-05-29T10:53:46.809Z,13.43
2019-05-29T10:56:14.880Z,13.35
2019-05-29T10:58:49.554Z,13.52
2019-05-29T11:01:13.435Z,13.53
2019-05-29T11:03:41.865Z,13.71
2019-05-29T11:06:10.284Z,13.74
2019-05-29T11:08:38.697Z,13.84
2019-05-29T11:11:07.172Z,13.93
2019-05-29T11:13:35.577Z,13.93
2019-05-29T11:16:03.972Z,13.95
2019-05-29T11:18:32.382Z,14.03
2019-05-29T11:21:00.825Z,14.14
2019-05-29T11:23:29.317Z,14.10
2019-05-29T11:25:58.183Z,14.02
2019-05-29T11:28:26.729Z,14.03
2019-05-29T11:30:55.679Z,14.18
2019-05-29T11:33:25.260Z,14.21
2019-05-29T11:36:03.283Z,14.20
2019-05-29T11:38:23.842Z,14.17
2019-05-29T11:41:15.647Z,14.21
2019-05-29T11:43:22.505Z,14.38
2019-05-29T11:45:51.211Z,14.47
2019-05-29T11:48:19.794Z,14.68
2019-05-29T11:50:48.200Z,14.84
2019-05-29T11:53:16.616Z,14.99
2019-05-29T11:55:45.038Z,15.20
2019-05-29T11:58:30.088Z,15.74
2019-05-29T12:00:43.579Z,16.10
2019-05-29T12:03:12.024Z,16.55
2019-05-29T12:05:40.485Z,16.96
2019-05-29T12:08:08.971Z,17.22
2019-05-29T12:10:37.445Z,17.56
2019-05-29T12:13:05.931Z,17.78
2019-05-29T12:15:34.340Z,17.90
2019-05-29T12:18:20.048Z,18.47
2019-05-29T12:20:32.924Z,18.86
2019-05-29T12:23:24.186Z,19.12
2019-05-29T12:25:31.627Z,19.48
2019-05-29T12:28:01.342Z,19.95
2019-05-29T12:30:30.681Z,19.95
2019-05-29T12:32:59.216Z,19.83
2019-05-29T12:35:27.616Z,20.28
2019-05-29T12:37:57.345Z,20.23
2019-05-29T12:40:25.986Z,20.49
2019-05-29T12:42:55.665Z,20.73
2019-05-29T12:45:24.349Z,20.83
2019-05-29T12:47:54.269Z,20.87
2019-05-29T12:50:23.212Z,20.78
2019-05-29T12:52:51.663Z,20.94
2019-05-29T12:55:20.337Z,21.25
2019-05-29T12:57:48.757Z,21.40
2019-05-29T13:00:18.898Z,21.38
2019-05-29T13:02:47.392Z,21.36
2019-05-29T13:05:20.442Z,21.02
2019-05-29T13:07:48.051Z,20.96
2019-05-29T13:10:29.871Z,21.22
2019-05-29T13:12:47.568Z,21.68
2019-05-29T13:15:17.072Z,21.71
2019-05-29T13:17:45.591Z,21.70
2019-05-29T13:20:21.642Z,21.53
2019-05-29T13:22:45.008Z,21.25
2019-05-29T13:25:13.822Z,21.25
2019-05-29T13:27:42.323Z,21.20
2019-05-29T13:30:13.017Z,20.90
2019-05-29T13:32:42.109Z,20.71
2019-05-29T13:35:13.021Z,20.71
2019-05-29T13:37:41.430Z,20.93
2019-05-29T13:40:10.399Z,20.85
2019-05-29T13:42:38.979Z,20.83
2019-05-29T13:45:17.714Z,21.34
2019-05-29T13:47:38.803Z,21.53
2019-05-29T13:50:12.015Z,21.64
2019-05-29T13:52:39.171Z,21.80
2019-05-29T13:55:08.124Z,21.83
2019-05-29T13:57:39.501Z,21.82
2019-05-29T14:02:43.873Z,21.23
2019-05-29T14:05:12.911Z,20.91
2019-05-29T14:07:41.417Z,20.73
2019-05-29T14:10:09.950Z,20.88
2019-05-29T14:12:38.515Z,21.17
2019-05-29T14:15:12.420Z,21.16
2019-05-29T14:17:41.074Z,21.11
2019-05-29T14:20:09.816Z,20.97
2019-05-29T14:22:38.419Z,20.68
2019-05-29T14:25:09.531Z,20.41
2019-05-29T14:27:38.374Z,20.69
2019-05-29T14:30:10.338Z,20.86
2019-05-29T14:32:39.338Z,20.76
2019-05-29T14:35:09.517Z,20.39
2019-05-29T14:37:38.426Z,20.41
2019-05-29T14:40:08.015Z,20.06
2019-05-29T14:42:36.700Z,19.87
2019-05-29T14:45:10.354Z,19.74
2019-05-29T14:47:39.081Z,19.71
2019-05-29T14:50:10.951Z,19.80
2019-05-29T14:52:39.710Z,19.85
2019-05-29T14:55:10.163Z,19.78
2019-05-29T14:57:38.720Z,19.81
2019-05-29T15:00:20.977Z,19.89
2019-05-29T15:02:38.987Z,19.92
2019-05-29T15:05:07.986Z,20.07
2019-05-29T15:07:36.362Z,20.32
2019-05-29T15:10:17.143Z,20.32
2019-05-29T15:12:38.811Z,20.21
2019-05-29T15:15:11.032Z,20.13
2019-05-29T15:17:39.356Z,20.26
2019-05-29T15:20:09.656Z,20.05
2019-05-29T15:22:38.417Z,20.19
2019-05-29T15:25:14.586Z,20.40
2019-05-29T15:27:38.420Z,20.53
2019-05-29T15:30:08.761Z,20.33
2019-05-29T15:32:37.378Z,20.37
2019-05-29T15:35:12.770Z,20.35
2019-05-29T15:37:38.196Z,20.19
2019-05-29T15:40:11.029Z,20.05
2019-05-29T15:42:39.761Z,20.01
2019-05-29T15:45:10.090Z,20.03
2019-05-29T15:47:38.532Z,20.24
2019-05-29T15:50:09.319Z,20.42
2019-05-29T15:52:37.975Z,20.60
2019-05-29T15:55:27.047Z,20.63
2019-05-29T15:57:39.784Z,20.52
2019-05-29T16:00:13.898Z,20.23
2019-05-29T16:02:42.467Z,20.23
2019-05-29T16:05:13.150Z,19.98
2019-05-29T16:07:41.789Z,19.97
2019-05-29T16:10:14.468Z,20.11
2019-05-29T16:12:41.879Z,20.13
2019-05-29T16:15:11.345Z,20.05
2019-05-29T16:17:39.836Z,20.18
2019-05-29T16:20:12.419Z,20.24
2019-05-29T16:22:41.296Z,20.36
2019-05-29T16:25:10.877Z,20.31
2019-05-29T16:27:39.437Z,19.98
2019-05-29T16:30:09.082Z,20.06
2019-05-29T16:32:37.497Z,20.01
2019-05-29T16:35:07.369Z,20.02
2019-05-29T16:37:35.841Z,20.19
2019-05-29T16:40:09.895Z,20.30
2019-05-29T16:42:38.342Z,20.37
2019-05-29T16:45:08.525Z,20.36
2019-05-29T16:47:36.927Z,20.52
2019-05-29T16:50:07.582Z,20.69
2019-05-29T16:52:37.695Z,20.86
2019-05-29T16:55:19.359Z,20.75
2019-05-29T16:57:47.812Z,20.85
2019-05-29T17:03:36.717Z,20.78
2019-05-29T17:08:54.897Z,21.02
2019-05-29T17:11:23.979Z,21.18
2019-05-29T17:13:53.547Z,21.32
2019-05-29T17:16:22.655Z,21.23
2019-05-29T17:18:51.387Z,20.98
2019-05-29T17:21:20.767Z,21.10
2019-05-29T17:23:49.222Z,21.20
2019-05-29T17:28:45.254Z,21.08
2019-05-29T17:31:14.966Z,21.15
2019-05-29T17:33:43.486Z,21.05
2019-05-29T17:36:11.868Z,20.94
2019-05-29T17:38:40.314Z,20.93
2019-05-29T17:41:08.778Z,20.91
2019-05-29T17:43:37.270Z,20.84
2019-05-29T17:46:05.697Z,20.75
2019-05-29T17:48:34.112Z,20.66
2019-05-29T17:51:02.561Z,20.62
2019-05-29T17:53:31.015Z,20.62
2019-05-29T17:55:59.424Z,20.52
2019-05-29T17:58:27.863Z,20.46
2019-05-29T18:00:56.255Z,20.30
2019-05-29T18:03:24.751Z,20.19
2019-05-29T18:05:53.184Z,20.16
2019-05-29T18:08:22.739Z,20.08
2019-05-29T18:10:51.389Z,20.10
2019-05-29T18:13:21.139Z,20.06
2019-05-29T18:15:49.820Z,19.99
2019-05-29T18:18:19.320Z,19.84
2019-05-29T18:20:47.906Z,19.73
2019-05-29T18:23:17.433Z,19.58
2019-05-29T18:25:45.966Z,16.72
2019-05-29T18:28:14.488Z,19.43
2019-05-29T18:30:42.868Z,19.37
2019-05-29T18:33:11.317Z,19.36
2019-05-29T18:35:39.712Z,19.30
2019-05-29T18:38:08.201Z,19.30
2019-05-29T18:40:36.757Z,19.23
2019-05-29T18:43:05.277Z,19.18
2019-05-29T18:45:33.753Z,19.10
2019-05-29T18:48:02.146Z,19.01
2019-05-29T18:50:32.707Z,18.91
2019-05-29T18:53:00.688Z,18.85
2019-05-29T18:55:29.207Z,18.74
2019-05-29T18:57:57.609Z,18.68
2019-05-29T19:00:27.405Z,18.55
2019-05-29T19:02:56.008Z,18.49
2019-05-29T19:05:25.605Z,18.43
2019-05-29T19:07:54.272Z,18.33
2019-05-29T19:10:23.669Z,18.26
2019-05-29T19:12:52.301Z,18.19
2019-05-29T19:15:21.885Z,18.14
2019-05-29T19:17:50.396Z,18.04
2019-05-29T19:20:19.067Z,17.87
2019-05-29T19:22:47.541Z,17.80
2019-05-29T19:25:16.491Z,17.72
2019-05-29T19:27:44.933Z,17.70
2019-05-29T19:30:13.808Z,17.57
2019-05-29T19:32:42.288Z,17.54
2019-05-29T19:35:10.793Z,17.35
2019-05-29T19:37:39.482Z,17.30
2019-05-29T19:40:09.735Z,17.08
2019-05-29T19:42:38.234Z,17.09
2019-05-29T19:45:11.450Z,16.94
2019-05-29T19:47:39.876Z,16.74
2019-05-29T19:50:11.393Z,16.69
2019-05-29T19:52:39.703Z,16.40
2019-05-29T19:55:08.360Z,16.35
2019-05-29T19:57:54.169Z,16.50
2019-05-29T20:00:10.200Z,16.63
2019-05-29T20:02:39.371Z,16.64
2019-05-29T20:05:08.631Z,16.62
2019-05-29T20:07:52.175Z,16.51
2019-05-29T20:13:18.257Z,16.27
2019-05-29T20:15:46.672Z,16.31
2019-05-29T20:18:15.172Z,16.28
2019-05-29T20:20:43.684Z,16.17
2019-05-29T20:23:12.141Z,16.15
2019-05-29T20:25:40.542Z,16.14
2019-05-29T20:28:09.019Z,16.10
2019-05-29T20:30:38.735Z,16.16
2019-05-29T20:33:07.277Z,13.16
2019-05-29T20:35:36.871Z,15.89
2019-05-29T20:38:06.664Z,15.83
2019-05-29T20:40:35.474Z,15.85
2019-05-29T20:43:04.084Z,15.79
2019-05-29T20:45:33.390Z,15.80
2019-05-29T20:48:01.811Z,15.71
2019-05-29T20:50:30.902Z,15.80
2019-05-29T20:52:59.405Z,15.57
2019-05-29T20:55:27.822Z,15.49
2019-05-29T20:57:56.212Z,15.34
2019-05-29T21:00:24.786Z,14.96
2019-05-29T21:02:53.267Z,14.86
2019-05-29T21:05:21.775Z,14.91
2019-05-29T21:07:50.237Z,15.04
2019-05-29T21:10:19.113Z,15.00
2019-05-29T21:12:47.867Z,14.96
2019-05-29T21:15:16.711Z,14.93
2019-05-29T21:17:45.336Z,14.94
2019-05-29T21:20:14.406Z,14.94
2019-05-29T21:22:44.961Z,14.94
2019-05-29T21:25:18.950Z,14.91
2019-05-29T21:27:48.809Z,14.93
2019-05-29T21:30:15.566Z,14.93
2019-05-29T21:32:44.107Z,14.83
2019-05-29T21:35:12.838Z,14.71
2019-05-29T21:37:42.472Z,14.58
2019-05-29T21:40:11.380Z,14.42
2019-05-29T21:42:40.532Z,14.33
2019-05-29T21:45:09.787Z,14.39
2019-05-29T21:47:39.014Z,12.32
2019-05-29T21:50:08.618Z,14.15
2019-05-29T21:52:37.610Z,14.17
2019-05-29T21:55:09.199Z,14.07
2019-05-29T21:57:38.110Z,14.17
2019-05-29T22:00:13.039Z,14.12
2019-05-29T22:02:42.310Z,13.99
2019-05-29T22:05:11.128Z,14.03
2019-05-29T22:07:40.705Z,14.07
2019-05-29T22:10:09.532Z,13.94
2019-05-29T22:12:37.932Z,13.96
2019-05-29T22:15:09.345Z,14.01
2019-05-29T22:17:37.816Z,14.01
2019-05-29T22:20:07.692Z,13.94
2019-05-29T22:22:37.017Z,13.77
2019-05-29T22:25:08.613Z,13.68
2019-05-29T22:27:37.685Z,13.65
2019-05-29T22:30:07.734Z,13.40
2019-05-29T22:32:36.356Z,13.45
2019-05-29T22:35:06.464Z,13.38
2019-05-29T22:37:34.929Z,13.30
2019-05-29T22:40:05.356Z,13.19
2019-05-29T22:42:33.858Z,13.26
2019-05-29T22:45:02.399Z,13.08
2019-05-29T22:47:30.774Z,13.18
2019-05-29T22:49:59.882Z,13.18
2019-05-29T22:52:28.413Z,13.17
2019-05-29T22:54:57.981Z,13.10
2019-05-29T22:57:26.547Z,13.09
2019-05-29T22:59:55.918Z,13.00
2019-05-29T23:02:24.923Z,12.88
2019-05-29T23:04:54.142Z,12.93
2019-05-29T23:07:22.889Z,13.00
2019-05-29T23:09:52.147Z,12.98
2019-05-29T23:12:20.684Z,12.89
2019-05-29T23:14:49.162Z,12.91
2019-05-29T23:17:17.691Z,12.78
2019-05-29T23:19:46.188Z,12.64
2019-05-29T23:22:14.723Z,12.65
2019-05-29T23:24:43.154Z,12.67
2019-05-29T23:27:11.551Z,12.60
2019-05-29T23:29:48.942Z,12.61
2019-05-29T23:32:10.208Z,12.61
2019-05-29T23:34:38.626Z,12.78
2019-05-29T23:37:07.195Z,12.79
2019-05-29T23:39:35.599Z,12.82
2019-05-29T23:42:04.110Z,12.85
2019-05-29T23:44:32.563Z,12.92
2019-05-29T23:47:01.787Z,13.02
2019-05-29T23:49:30.816Z,13.04
2019-05-29T23:51:59.689Z,13.14
2019-05-29T23:54:28.367Z,13.21
2019-05-29T23:56:57.950Z,13.33
2019-05-29T23:59:26.380Z,13.36
